Time;durP1;ratioP1;P1;durP2;ratioP2;P2;SDS_P1;SDS_P2;PMS_P1;PMS_P2;Temp;Humidity;BMP_temperature;BMP_pressure;BME280_temperature;BME280_humidity;BME280_pressure;Samples;Min_cycle;Max_cycle;Signal;HPM_P1;HPM_P2
2022/01/17 00:02:23;;;;;;;41.70;7.47;;;;;;;5.80;81.04;98917.19;5064352;28;20115;-79
2022/01/17 00:04:48;;;;;;;35.50;5.68;;;;;;;5.95;80.46;98901.53;5046580;28;20028;-81
2022/01/17 00:07:15;;;;;;;58.30;8.68;;;;;;;5.82;81.06;98895.72;5064294;28;20058;-80
2022/01/17 00:09:40;;;;;;;29.27;4.90;;;;;;;5.80;81.38;98897.44;5064335;28;20056;-85
2022/01/17 00:12:06;;;;;;;29.55;5.85;;;;;;;5.76;81.33;98890.63;5063754;28;20079;-77
2022/01/17 00:14:39;;;;;;;23.92;5.03;;;;;;;5.86;80.93;98919.72;5064430;28;20101;-84
2022/01/17 00:17:24;;;;;;;25.35;4.05;;;;;;;5.90;80.67;98917.91;5064514;28;20025;-84
2022/01/17 00:19:54;;;;;;;31.67;7.85;;;;;;;5.90;80.29;98905.03;5062873;28;20063;-82
2022/01/17 00:22:20;;;;;;;36.90;5.85;;;;;;;6.01;80.11;98936.66;5064202;28;20264;-80
2022/01/17 00:24:47;;;;;;;38.88;6.20;;;;;;;5.97;80.12;98953.06;5046202;28;20036;-83
2022/01/17 00:27:12;;;;;;;29.25;5.53;;;;;;;6.12;79.57;98943.44;5063956;28;20039;-78
2022/01/17 00:29:38;;;;;;;34.60;6.93;;;;;;;6.13;79.24;98943.44;5064111;28;20052;-82
2022/01/17 00:32:04;;;;;;;28.50;5.47;;;;;;;6.16;78.95;98903.88;5064047;28;20428;-81
2022/01/17 00:34:29;;;;;;;29.90;5.90;;;;;;;6.15;78.68;98974.31;5063827;28;20041;-80
2022/01/17 00:36:55;;;;;;;30.58;6.10;;;;;;;6.14;78.42;98963.16;5063942;28;20051;-83
2022/01/17 00:39:20;;;;;;;37.13;5.80;;;;;;;6.24;78.10;98974.19;5064028;28;20497;-84
2022/01/17 00:41:46;;;;;;;19.20;4.72;;;;;;;6.27;77.65;98924.31;5063784;28;20025;-77
2022/01/17 00:44:11;;;;;;;20.45;4.97;;;;;;;6.35;76.64;98968.03;5045765;28;20460;-78
2022/01/17 00:46:37;;;;;;;23.98;5.93;;;;;;;6.31;76.14;98998.16;5063591;28;20021;-84
2022/01/17 00:49:04;;;;;;;26.05;3.50;;;;;;;6.33;75.33;98973.19;5045786;28;20027;-79
2022/01/17 00:51:29;;;;;;;27.40;4.68;;;;;;;6.26;74.79;98959.53;5063873;28;20029;-81
2022/01/17 00:53:55;;;;;;;25.58;3.97;;;;;;;6.37;74.21;99002.38;5045765;28;20032;-79
2022/01/17 00:56:22;;;;;;;18.13;3.60;;;;;;;6.41;73.60;99010.03;5063876;28;20069;-80
2022/01/17 00:58:49;;;;;;;33.35;4.57;;;;;;;6.53;72.90;99005.59;5063862;28;20098;-80
2022/01/17 01:01:14;;;;;;;12.00;3.45;;;;;;;6.57;72.39;99012.41;5063560;28;20024;-86
2022/01/17 01:03:40;;;;;;;7.05;1.70;;;;;;;6.57;71.03;98999.50;5063906;28;20024;-77
2022/01/17 01:06:06;;;;;;;9.57;2.15;;;;;;;6.54;69.35;99002.13;5063348;28;20031;-79
2022/01/17 01:08:31;;;;;;;17.02;2.58;;;;;;;6.57;66.51;98984.03;5063684;28;20363;-77
2022/01/17 01:10:57;;;;;;;12.57;3.33;;;;;;;6.61;65.53;99015.78;5063830;28;20029;-83
2022/01/17 01:13:24;;;;;;;9.50;2.15;;;;;;;6.64;65.62;99029.50;5064179;28;20029;-78
2022/01/17 01:28:52;;;;;;;6.22;1.92;;;;;;;6.46;62.20;99097.63;5063527;28;20127;-76
2022/01/17 01:31:27;;;;;;;5.25;1.63;;;;;;;6.37;61.51;99116.66;5063079;28;20025;-75
2022/01/17 01:33:55;;;;;;;9.00;2.28;;;;;;;6.45;59.83;99109.66;5062948;28;20033;-76
2022/01/17 01:36:28;;;;;;;9.20;1.90;;;;;;;6.40;59.38;99133.81;5062890;28;20055;-76
2022/01/17 01:38:53;;;;;;;5.07;1.77;;;;;;;6.32;58.13;99126.16;5063069;28;20017;-74
2022/01/17 01:41:20;;;;;;;5.45;1.50;;;;;;;6.27;56.06;99122.78;5063264;28;20025;-76
2022/01/17 01:43:46;;;;;;;7.43;1.52;;;;;;;6.19;54.26;99135.75;5062982;28;20029;-74
2022/01/17 01:46:17;;;;;;;8.07;1.65;;;;;;;6.10;51.11;99141.88;5062600;28;20055;-75
2022/01/17 01:48:42;;;;;;;4.20;1.23;;;;;;;5.97;50.09;99140.25;5044838;28;20059;-75
2022/01/17 01:51:09;;;;;;;3.25;2.05;;;;;;;5.78;49.33;99145.59;5063149;28;20088;-74
2022/01/17 01:53:35;;;;;;;6.07;1.92;;;;;;;5.82;50.42;99173.00;5045129;28;20021;-74
2022/01/17 01:56:00;;;;;;;8.25;2.08;;;;;;;5.77;46.29;99149.00;5062556;28;20020;-75
2022/01/17 01:58:26;;;;;;;6.43;2.17;;;;;;;5.70;46.00;99181.72;5062997;28;20100;-74
2022/01/17 02:00:53;;;;;;;3.30;1.20;;;;;;;5.58;45.36;99187.78;5044887;28;20385;-73
2022/01/17 02:03:18;;;;;;;12.52;2.10;;;;;;;5.52;44.52;99178.41;5061402;28;20021;-74
2022/01/17 02:05:44;;;;;;;5.78;2.20;;;;;;;5.41;44.51;99177.63;5062603;28;20021;-71
2022/01/17 02:08:13;;;;;;;7.07;2.17;;;;;;;5.24;42.67;99178.56;5062749;28;20043;-74
2022/01/17 02:10:39;;;;;;;7.95;1.42;;;;;;;5.11;43.30;99194.97;5044747;28;20025;-73
2022/01/17 02:13:05;;;;;;;7.70;3.10;;;;;;;4.96;43.29;99202.75;5062646;28;20025;-74
2022/01/17 02:15:30;;;;;;;9.90;1.50;;;;;;;4.83;42.27;99213.97;5044483;28;20100;-74
2022/01/17 02:17:57;;;;;;;13.88;1.85;;;;;;;4.74;42.77;99224.28;5062881;28;20501;-74
2022/01/17 02:20:42;;;;;;;4.40;1.40;;;;;;;4.63;42.75;99232.03;5062705;28;20044;-73
2022/01/17 02:23:08;;;;;;;6.30;1.40;;;;;;;4.49;42.86;99235.47;5044494;28;20025;-73
2022/01/17 02:25:34;;;;;;;6.38;1.52;;;;;;;4.37;41.45;99218.38;5044232;28;20029;-72
2022/01/17 02:28:00;;;;;;;6.55;1.25;;;;;;;4.34;41.72;99249.25;5062758;28;20035;-71
2022/01/17 02:30:27;;;;;;;5.05;1.50;;;;;;;4.27;41.94;99280.91;5062343;28;20081;-71
2022/01/17 02:32:53;;;;;;;3.60;0.95;;;;;;;4.25;41.53;99269.81;5062562;28;20519;-72
2022/01/17 02:35:23;;;;;;;4.78;1.40;;;;;;;4.06;42.35;99274.94;5063639;28;20121;-71
2022/01/17 02:37:50;;;;;;;3.10;1.10;;;;;;;4.10;41.31;99256.09;5048118;28;20021;-70
2022/01/17 02:40:17;;;;;;;16.98;1.98;;;;;;;4.08;41.00;99294.63;5047970;28;20036;-69
2022/01/17 02:42:45;;;;;;;4.60;2.10;;;;;;;4.02;40.97;99309.19;5065994;28;20048;-70
2022/01/17 02:45:29;;;;;;;3.63;1.35;;;;;;;3.93;40.56;99304.91;5065920;28;20025;-71
2022/01/17 02:47:54;;;;;;;3.80;1.23;;;;;;;3.70;40.82;99342.53;5047873;28;20400;-72
2022/01/17 02:50:20;;;;;;;2.15;1.63;;;;;;;3.71;40.16;99346.81;5065953;28;20025;-70
2022/01/17 02:52:45;;;;;;;6.70;1.75;;;;;;;3.65;40.10;99354.47;5065901;28;20093;-73
2022/01/17 02:55:11;;;;;;;5.50;1.50;;;;;;;3.55;40.14;99361.28;5065920;28;20066;-72
2022/01/17 02:57:36;;;;;;;7.97;1.40;;;;;;;3.31;40.21;99341.53;5047605;28;20032;-70
2022/01/17 03:00:03;;;;;;;5.35;1.50;;;;;;;3.41;39.50;99380.91;5065684;28;20032;-71
2022/01/17 03:02:28;;;;;;;2.67;1.35;;;;;;;3.27;37.19;99366.31;5047439;28;20093;-76
2022/01/17 03:04:54;;;;;;;3.00;0.90;;;;;;;3.28;36.94;99380.00;5047654;28;20021;-73
2022/01/17 03:07:19;;;;;;;4.25;1.08;;;;;;;3.14;37.20;99379.94;5047627;28;20032;-72
2022/01/17 03:10:00;;;;;;;4.63;1.55;;;;;;;3.16;37.22;99384.22;5047708;28;20477;-73
2022/01/17 03:12:25;;;;;;;2.92;0.95;;;;;;;3.12;37.86;99409.81;5065396;28;20142;-72
2022/01/17 03:14:51;;;;;;;2.88;0.85;;;;;;;3.03;35.56;99383.31;5065316;28;20041;-72
2022/01/17 03:17:16;;;;;;;4.43;1.33;;;;;;;3.04;34.80;99395.25;5065361;28;20096;-72
2022/01/17 03:19:42;;;;;;;2.67;1.15;;;;;;;2.98;33.80;99410.63;5065564;28;20025;-72
2022/01/17 03:22:07;;;;;;;4.03;1.13;;;;;;;2.93;34.83;99418.28;5065264;28;20532;-71
2022/01/17 03:24:32;;;;;;;3.33;1.00;;;;;;;2.94;34.86;99421.72;5065110;28;20104;-70
2022/01/17 03:26:58;;;;;;;3.85;1.08;;;;;;;2.84;35.85;99441.28;5065032;28;20193;-71
2022/01/17 03:29:23;;;;;;;4.30;1.00;;;;;;;2.78;36.64;99413.03;5065255;28;20032;-71
2022/01/17 03:31:48;;;;;;;4.43;1.00;;;;;;;2.71;37.07;99440.31;5046911;28;20142;-71
2022/01/17 03:34:14;;;;;;;9.23;1.45;;;;;;;2.75;37.25;99444.63;5065063;28;20063;-70
2022/01/17 03:36:40;;;;;;;4.22;1.33;;;;;;;2.66;38.03;99458.22;5064926;28;20025;-72
2022/01/17 03:39:06;;;;;;;9.55;1.60;;;;;;;2.52;38.67;99470.94;5047114;28;20095;-71
2022/01/17 03:41:31;;;;;;;4.45;1.55;;;;;;;2.58;38.92;99458.16;5047167;28;20024;-72
2022/01/17 03:43:56;;;;;;;3.20;1.27;;;;;;;2.52;39.28;99468.38;5046749;28;20028;-70
2022/01/17 03:46:22;;;;;;;6.63;1.42;;;;;;;2.51;39.84;99483.72;5063894;28;20021;-72
2022/01/17 03:48:47;;;;;;;4.72;1.23;;;;;;;2.37;39.87;99489.56;5064746;28;20020;-71
2022/01/17 03:51:13;;;;;;;3.97;1.38;;;;;;;2.36;39.66;99503.22;5064727;28;20021;-70
2022/01/17 03:53:38;;;;;;;7.95;1.73;;;;;;;2.48;40.31;99528.09;5046764;28;20016;-70
2022/01/17 03:56:04;;;;;;;2.90;1.50;;;;;;;2.33;40.03;99505.75;5064648;28;20012;-71
2022/01/17 03:58:29;;;;;;;3.45;1.65;;;;;;;2.38;40.48;99516.88;5064771;28;20025;-70
2022/01/17 04:00:58;;;;;;;5.18;1.15;;;;;;;2.36;40.80;99518.59;5064360;28;20055;-71
2022/01/17 04:03:25;;;;;;;3.35;1.20;;;;;;;2.33;40.93;99516.00;5064797;28;20053;-71
2022/01/17 04:05:50;;;;;;;4.70;2.10;;;;;;;2.31;40.73;99518.53;5046291;28;20096;-70
2022/01/17 04:08:16;;;;;;;6.82;1.83;;;;;;;2.30;41.22;99542.41;5064360;28;20048;-71
2022/01/17 04:10:41;;;;;;;7.03;1.63;;;;;;;2.19;40.72;99534.63;5064219;28;20052;-71
2022/01/17 04:13:09;;;;;;;3.40;1.55;;;;;;;2.17;40.84;99551.66;5064284;28;20481;-70
2022/01/17 04:15:35;;;;;;;6.10;1.50;;;;;;;2.23;41.51;99535.50;5046186;28;20146;-71
2022/01/17 04:18:05;;;;;;;7.55;1.52;;;;;;;2.17;41.79;99561.91;5064412;28;20446;-70
2022/01/17 04:20:31;;;;;;;5.32;1.65;;;;;;;2.14;40.44;99548.22;5064444;28;20025;-67
2022/01/17 04:22:59;;;;;;;8.48;1.60;;;;;;;2.14;40.72;99566.97;5064202;28;20025;-71
2022/01/17 04:25:29;;;;;;;9.10;1.38;;;;;;;2.07;40.49;99557.50;5064146;28;20028;-70
2022/01/17 04:27:54;;;;;;;6.32;1.15;;;;;;;2.17;40.46;99595.19;5063915;28;20021;-71
2022/01/17 04:30:21;;;;;;;6.88;1.20;;;;;;;2.17;40.22;99578.97;5064021;28;20033;-69
2022/01/17 04:32:47;;;;;;;5.13;1.23;;;;;;;2.20;39.80;99564.53;5063779;28;20044;-70
2022/01/17 04:35:14;;;;;;;5.57;1.40;;;;;;;2.15;39.40;99594.31;5062203;28;20127;-70
2022/01/17 04:37:41;;;;;;;3.00;1.33;;;;;;;2.08;39.80;99580.56;5063802;28;20382;-70
2022/01/17 04:40:07;;;;;;;2.60;1.10;;;;;;;2.09;39.45;99591.69;5063737;28;20100;-70
2022/01/17 04:42:33;;;;;;;4.88;1.30;;;;;;;2.15;39.35;99625.06;5063661;28;20021;-73
2022/01/17 04:45:08;;;;;;;2.97;1.13;;;;;;;2.17;39.26;99561.91;5063707;28;20311;-70
2022/01/17 04:47:36;;;;;;;7.55;1.77;;;;;;;2.19;39.35;99638.78;5063587;28;20068;-70
2022/01/17 04:50:04;;;;;;;4.32;1.00;;;;;;;2.17;39.44;99654.09;5063612;28;20028;-72
2022/01/17 04:52:30;;;;;;;6.18;2.40;;;;;;;2.18;39.83;99660.94;5063643;28;20017;-70
2022/01/17 04:55:00;;;;;;;5.20;1.60;;;;;;;2.15;40.19;99665.16;5063588;28;20036;-70
2022/01/17 04:57:25;;;;;;;4.18;1.40;;;;;;;2.11;40.54;99679.63;5063132;28;20021;-68
2022/01/17 04:59:51;;;;;;;3.88;1.30;;;;;;;2.09;40.73;99677.03;5063452;28;20079;-69
2022/01/17 05:02:18;;;;;;;6.22;1.50;;;;;;;2.08;41.22;99683.00;5063301;28;20025;-71
2022/01/17 05:04:47;;;;;;;4.03;1.20;;;;;;;2.07;41.76;99704.34;5063383;28;20024;-70
2022/01/17 05:07:13;;;;;;;5.07;1.33;;;;;;;2.06;42.25;99684.66;5063287;28;20033;-70
2022/01/17 05:09:42;;;;;;;8.35;1.50;;;;;;;2.06;41.69;99699.19;5063550;28;20476;-71
2022/01/17 05:12:09;;;;;;;9.43;2.40;;;;;;;2.07;42.06;99694.09;5063264;28;20158;-70
2022/01/17 05:14:35;;;;;;;9.88;1.60;;;;;;;2.07;41.93;99717.13;5063212;28;20493;-70
2022/01/17 05:17:10;;;;;;;9.70;1.85;;;;;;;2.10;42.32;99726.56;5062998;28;20333;-70
2022/01/17 05:19:48;;;;;;;9.68;1.70;;;;;;;2.01;42.62;99711.06;5045193;28;20051;-70
2022/01/17 05:22:16;;;;;;;2.25;1.20;;;;;;;2.04;42.69;99721.34;5063283;28;20021;-70
2022/01/17 05:24:41;;;;;;;4.57;1.52;;;;;;;2.06;42.84;99752.97;5045201;28;20441;-70
2022/01/17 05:27:07;;;;;;;7.88;2.22;;;;;;;1.99;42.89;99744.31;5062931;28;20139;-71
2022/01/17 05:29:32;;;;;;;5.18;1.50;;;;;;;2.04;43.03;99752.06;5063105;28;20052;-70
2022/01/17 05:31:58;;;;;;;5.50;1.40;;;;;;;2.05;43.14;99751.22;5062961;28;20029;-70
2022/01/17 05:34:23;;;;;;;7.03;1.90;;;;;;;2.05;42.69;99757.22;5044775;28;20056;-72
2022/01/17 05:36:49;;;;;;;5.50;1.65;;;;;;;2.02;42.19;99764.84;5062804;28;20029;-72
2022/01/17 05:39:15;;;;;;;4.32;1.25;;;;;;;1.96;42.32;99734.03;5062978;28;20025;-71
2022/01/17 05:41:41;;;;;;;5.97;1.70;;;;;;;2.02;41.98;99767.41;5044924;28;20017;-71
2022/01/17 05:44:06;;;;;;;8.63;1.40;;;;;;;2.04;41.61;99778.56;5063078;28;20021;-72
2022/01/17 05:46:32;;;;;;;7.80;1.60;;;;;;;2.05;41.88;99800.75;5062811;28;20037;-73
2022/01/17 05:48:57;;;;;;;4.47;1.80;;;;;;;1.98;41.91;99781.84;5045178;28;20509;-72
2022/01/17 05:51:23;;;;;;;13.52;1.20;;;;;;;1.97;41.80;99808.31;5063297;28;20123;-71
2022/01/17 05:53:49;;;;;;;4.55;1.40;;;;;;;2.05;42.18;99833.16;5063099;28;20024;-75
2022/01/17 05:56:14;;;;;;;6.78;1.35;;;;;;;2.03;42.12;99804.97;5045616;28;20036;-76
2022/01/17 05:58:39;;;;;;;4.63;1.60;;;;;;;1.95;41.35;99834.72;5063150;28;20481;-73
2022/01/17 06:01:06;;;;;;;5.95;1.30;;;;;;;1.96;41.34;99846.69;5045122;28;20029;-74
2022/01/17 06:03:32;;;;;;;4.88;1.10;;;;;;;1.98;40.75;99825.38;5063533;28;20108;-72
2022/01/17 06:05:58;;;;;;;3.88;1.20;;;;;;;2.07;41.20;99851.97;5063117;28;20024;-74
2022/01/17 06:08:23;;;;;;;10.13;2.53;;;;;;;2.09;41.10;99868.25;5045503;28;20111;-73
2022/01/17 06:10:49;;;;;;;6.50;1.48;;;;;;;2.10;41.46;99857.16;5064952;28;20032;-73
2022/01/17 06:13:14;;;;;;;4.10;0.93;;;;;;;1.97;41.50;99846.72;5066638;28;20483;-74
2022/01/17 06:15:40;;;;;;;3.92;1.20;;;;;;;2.08;41.48;99889.56;5048522;28;20025;-71
2022/01/17 06:18:05;;;;;;;4.97;1.38;;;;;;;2.08;41.38;99861.38;5066881;28;20094;-70
2022/01/17 06:20:30;;;;;;;6.38;1.92;;;;;;;2.12;41.16;99896.47;5066818;28;20025;-70
2022/01/17 06:22:56;;;;;;;8.25;2.03;;;;;;;2.09;40.99;99883.63;5066606;28;20051;-68
2022/01/17 06:25:21;;;;;;;12.15;1.65;;;;;;;2.07;41.07;99898.06;5066702;28;20439;-68
2022/01/17 06:27:47;;;;;;;7.50;1.65;;;;;;;2.09;41.15;99909.22;5066096;28;20384;-68
2022/01/17 06:30:13;;;;;;;3.03;1.23;;;;;;;2.07;41.21;99932.25;5066695;28;20154;-68
2022/01/17 06:32:39;;;;;;;5.30;1.20;;;;;;;2.05;41.62;99948.38;5066446;28;20021;-68
2022/01/17 06:35:05;;;;;;;5.22;1.20;;;;;;;2.08;41.64;99979.19;5066342;28;20149;-69
2022/01/17 06:37:31;;;;;;;3.90;1.20;;;;;;;2.01;41.31;99967.09;5066447;28;20036;-68
2022/01/17 06:39:56;;;;;;;5.53;1.20;;;;;;;2.08;41.62;100010.78;5066112;28;20114;-69
2022/01/17 06:42:22;;;;;;;2.80;0.82;;;;;;;2.05;41.08;100022.66;5048232;28;20503;-68
2022/01/17 06:44:50;;;;;;;3.10;1.35;;;;;;;2.01;41.25;100033.69;5066482;28;20029;-67
2022/01/17 06:47:15;;;;;;;8.90;1.55;;;;;;;2.02;41.61;100032.84;5047657;28;20048;-69
2022/01/17 06:49:40;;;;;;;4.05;1.20;;;;;;;1.98;41.70;100027.66;5048300;28;20025;-72
2022/01/17 06:52:06;;;;;;;6.47;1.63;;;;;;;1.99;41.45;100028.53;5048063;28;20067;-71
2022/01/17 06:54:32;;;;;;;5.03;1.60;;;;;;;1.94;41.36;100027.56;5065936;28;20029;-74
2022/01/17 06:56:58;;;;;;;9.25;1.27;;;;;;;1.89;41.22;99996.75;5065742;28;20021;-72
2022/01/17 06:59:23;;;;;;;5.03;1.13;;;;;;;1.98;41.19;100008.88;5065824;28;20276;-71
2022/01/17 07:01:48;;;;;;;6.82;1.60;;;;;;;1.97;41.07;100012.25;5065851;28;20059;-72
2022/01/17 07:04:14;;;;;;;4.80;1.20;;;;;;;2.03;40.69;100016.66;5047910;28;20037;-72
2022/01/17 07:06:40;;;;;;;4.47;2.03;;;;;;;2.04;40.69;100028.63;5065643;28;20489;-71
2022/01/17 07:09:08;;;;;;;4.00;1.20;;;;;;;1.94;40.75;100037.81;5065437;28;20028;-71
2022/01/17 07:11:38;;;;;;;9.98;1.42;;;;;;;2.04;41.13;100055.09;5065662;28;20025;-71
2022/01/17 07:14:08;;;;;;;6.38;1.40;;;;;;;2.05;40.99;100040.56;5065733;28;20168;-72
2022/01/17 07:16:38;;;;;;;6.85;2.05;;;;;;;1.96;41.11;100049.81;5047232;28;20013;-71
2022/01/17 07:19:03;;;;;;;3.22;1.23;;;;;;;2.01;41.44;100065.28;5065665;28;20024;-72
2022/01/17 07:21:29;;;;;;;4.32;1.73;;;;;;;1.99;41.37;100082.28;5065488;28;20025;-71
2022/01/17 07:23:55;;;;;;;5.22;1.40;;;;;;;1.98;41.10;100101.91;5047388;28;20052;-71
2022/01/17 07:26:20;;;;;;;4.88;1.15;;;;;;;2.02;41.46;100089.16;5065074;28;20024;-72
2022/01/17 07:28:46;;;;;;;7.13;1.50;;;;;;;2.02;41.33;100094.28;5065140;28;20024;-69
2022/01/17 07:31:11;;;;;;;7.45;1.95;;;;;;;1.91;41.49;100100.06;5063680;28;20092;-71
2022/01/17 07:33:37;;;;;;;13.88;1.45;;;;;;;1.94;41.66;100095.00;5065334;28;20073;-72
2022/01/17 07:36:07;;;;;;;2.83;1.10;;;;;;;1.98;41.83;100104.47;5064716;28;20374;-70
2022/01/17 07:38:35;;;;;;;7.32;1.65;;;;;;;2.02;42.11;100119.91;5065108;28;20032;-70
2022/01/17 07:41:01;;;;;;;12.25;1.83;;;;;;;2.02;42.03;100117.34;5065102;28;20021;-73
2022/01/17 07:43:26;;;;;;;8.27;1.30;;;;;;;1.99;42.59;100123.25;5047056;28;20021;-71
2022/01/17 07:46:23;;;;;;;4.78;1.30;;;;;;;2.03;42.83;100127.59;5046682;28;20021;-70
2022/01/17 07:51:21;;;;;;;5.60;1.70;;;;;;;1.98;43.24;100145.44;5064849;28;20021;-71
2022/01/17 07:53:47;;;;;;;2.90;1.27;;;;;;;2.06;43.13;100155.00;5065034;28;20028;-71
2022/01/17 07:56:13;;;;;;;3.88;1.80;;;;;;;2.02;43.24;100141.25;5064567;28;20013;-71
2022/01/17 07:58:38;;;;;;;6.03;1.20;;;;;;;2.07;43.38;100138.78;5064205;28;20544;-71
2022/01/17 08:01:04;;;;;;;5.85;1.77;;;;;;;2.09;43.45;100139.69;5063905;28;20052;-69
2022/01/17 08:03:30;;;;;;;8.55;1.30;;;;;;;2.12;43.33;100155.13;5064258;28;20017;-71
2022/01/17 08:05:55;;;;;;;7.75;2.00;;;;;;;2.06;43.78;100144.75;5045674;28;20024;-70
2022/01/17 08:08:21;;;;;;;6.20;1.70;;;;;;;2.05;43.73;100143.88;5064126;28;20025;-71
2022/01/17 08:10:46;;;;;;;9.50;1.77;;;;;;;2.18;43.89;100170.63;5064291;28;20362;-71
2022/01/17 08:13:12;;;;;;;9.82;2.03;;;;;;;2.26;44.02;100152.88;5064156;28;20056;-73
2022/01/17 08:15:38;;;;;;;5.85;1.98;;;;;;;2.73;43.53;100154.69;5064081;28;20024;-71
2022/01/17 08:18:04;;;;;;;7.75;1.40;;;;;;;3.08;42.69;100184.38;5045718;28;20028;-72
2022/01/17 08:20:30;;;;;;;6.57;1.92;;;;;;;3.27;42.15;100191.56;5045846;28;20021;-72
2022/01/17 08:22:59;;;;;;;6.78;1.70;;;;;;;3.64;41.96;100206.75;5064001;28;20083;-72
2022/01/17 08:25:24;;;;;;;5.32;3.15;;;;;;;4.04;41.80;100229.66;5045782;28;20020;-72
2022/01/17 08:27:50;;;;;;;7.53;1.83;;;;;;;4.20;41.09;100218.75;5063750;28;20048;-72
2022/01/17 08:30:15;;;;;;;2.45;0.98;;;;;;;4.37;40.22;100249.00;5063820;28;20028;-71
2022/01/17 08:32:41;;;;;;;4.28;1.30;;;;;;;4.37;39.90;100273.81;5045100;28;20527;-70
2022/01/17 08:35:07;;;;;;;7.32;1.63;;;;;;;4.29;40.19;100294.28;5063465;28;20426;-71
2022/01/17 08:37:33;;;;;;;3.83;1.30;;;;;;;4.12;39.58;100289.72;5063408;28;20084;-72
2022/01/17 08:40:00;;;;;;;11.82;1.75;;;;;;;4.08;39.79;100311.94;5064076;28;20059;-72
2022/01/17 08:42:26;;;;;;;7.78;1.52;;;;;;;3.99;40.14;100305.78;5063760;28;20029;-72
2022/01/17 08:44:54;;;;;;;8.38;1.30;;;;;;;3.94;40.48;100298.88;5062573;28;20025;-70
2022/01/17 08:47:20;;;;;;;7.80;1.55;;;;;;;4.05;40.65;100296.47;5063538;28;20032;-70
2022/01/17 08:49:47;;;;;;;7.82;1.90;;;;;;;4.26;40.78;100313.09;5045778;28;20021;-71
2022/01/17 08:52:15;;;;;;;5.35;1.90;;;;;;;4.66;40.14;100312.84;5045795;28;20505;-70
2022/01/17 08:54:40;;;;;;;7.85;1.55;;;;;;;4.91;39.92;100315.75;5046085;28;20039;-71
2022/01/17 08:57:06;;;;;;;4.25;1.40;;;;;;;5.15;39.15;100342.63;5045791;28;20052;-71
2022/01/17 08:59:31;;;;;;;5.80;1.73;;;;;;;5.27;38.66;100344.47;5063751;28;20025;-71
2022/01/17 09:01:57;;;;;;;11.75;2.25;;;;;;;5.43;38.65;100353.25;5045626;28;20025;-70
2022/01/17 09:04:23;;;;;;;9.10;1.33;;;;;;;5.83;38.26;100367.47;5045815;28;20048;-70
2022/01/17 09:06:48;;;;;;;7.18;1.30;;;;;;;6.35;37.67;100368.81;5063432;28;20132;-70
2022/01/17 09:09:16;;;;;;;4.15;0.93;;;;;;;6.87;37.18;100351.97;5063702;28;20036;-71
2022/01/17 09:11:42;;;;;;;5.65;1.30;;;;;;;7.21;35.05;100361.63;5045747;28;20107;-71
2022/01/17 09:14:08;;;;;;;4.82;1.48;;;;;;;7.66;35.04;100381.63;5063588;28;20031;-70
2022/01/17 09:16:33;;;;;;;4.93;1.15;;;;;;;8.19;34.63;100392.06;5063316;28;20021;-71
2022/01/17 09:19:00;;;;;;;6.97;1.75;;;;;;;8.53;34.14;100411.94;5063761;28;20024;-71
2022/01/17 09:21:26;;;;;;;4.00;1.45;;;;;;;8.85;33.23;100397.28;5063441;28;20021;-70
2022/01/17 09:23:54;;;;;;;4.72;1.13;;;;;;;9.22;33.19;100402.38;5063617;28;20028;-70
2022/01/17 09:26:23;;;;;;;7.32;2.08;;;;;;;9.46;32.18;100371.19;5063362;28;20033;-70
2022/01/17 09:28:49;;;;;;;7.70;1.30;;;;;;;9.56;32.17;100388.44;5063569;28;20017;-70
2022/01/17 09:31:15;;;;;;;3.75;1.40;;;;;;;9.85;31.80;100415.94;5063262;28;20491;-70
2022/01/17 09:33:40;;;;;;;7.03;1.17;;;;;;;10.08;32.04;100421.88;5063437;28;20024;-70
2022/01/17 09:36:06;;;;;;;4.80;1.30;;;;;;;10.51;31.01;100425.94;5062830;28;20047;-71
2022/01/17 09:38:31;;;;;;;11.77;1.85;;;;;;;10.66;30.18;100448.31;5063343;28;20080;-69
2022/01/17 09:40:57;;;;;;;10.05;1.63;;;;;;;10.36;29.74;100451.09;5063170;28;20029;-71
2022/01/17 09:43:22;;;;;;;8.00;1.35;;;;;;;9.97;30.19;100455.66;5063274;28;20051;-70
2022/01/17 09:45:48;;;;;;;8.20;1.40;;;;;;;9.52;30.85;100470.50;5065160;28;20025;-69
2022/01/17 09:48:19;;;;;;;4.45;1.45;;;;;;;9.49;31.16;100478.28;5067204;28;20041;-71
2022/01/17 09:50:57;;;;;;;3.97;1.30;;;;;;;9.74;30.74;100485.13;5067381;28;20029;-69
2022/01/17 09:53:23;;;;;;;8.20;1.23;;;;;;;9.73;29.42;100483.41;5067110;28;20041;-70
2022/01/17 09:55:49;;;;;;;6.25;1.40;;;;;;;9.76;30.09;100498.97;5067143;28;20060;-70
2022/01/17 09:58:15;;;;;;;7.18;1.48;;;;;;;10.12;30.73;100502.25;5049092;28;20036;-71
2022/01/17 10:00:43;;;;;;;6.65;1.92;;;;;;;10.70;30.18;100508.88;5067030;28;20489;-70
2022/01/17 10:03:16;;;;;;;6.15;1.00;;;;;;;11.36;29.70;100499.63;5066793;28;20028;-70
2022/01/17 10:05:42;;;;;;;7.10;1.27;;;;;;;11.83;28.26;100496.53;5066862;28;20040;-71
2022/01/17 10:08:15;;;;;;;6.32;1.55;;;;;;;12.15;27.54;100486.59;5048827;28;20021;-72
2022/01/17 10:10:54;;;;;;;7.07;1.65;;;;;;;12.49;26.29;100509.53;5048948;28;20025;-71
2022/01/17 10:13:32;;;;;;;5.03;1.10;;;;;;;12.60;26.61;100542.38;5066794;28;20036;-69
2022/01/17 10:15:58;;;;;;;7.35;1.30;;;;;;;12.76;26.74;100540.41;5066378;28;20017;-70
2022/01/17 10:18:25;;;;;;;4.50;1.30;;;;;;;12.89;26.15;100548.91;5066713;28;20024;-68
2022/01/17 10:20:56;;;;;;;7.22;1.35;;;;;;;12.92;25.76;100567.09;5066692;28;20044;-70
2022/01/17 10:23:41;;;;;;;5.90;1.17;;;;;;;12.88;24.86;100549.78;5048649;28;20469;-71
2022/01/17 10:26:17;;;;;;;5.28;1.40;;;;;;;12.43;26.02;100571.28;5066349;28;20029;-68
2022/01/17 10:29:10;;;;;;;6.75;1.33;;;;;;;12.01;26.06;100581.28;5066567;28;20029;-70
2022/01/17 10:37:07;;;;;;;3.53;1.25;;;;;;;10.78;28.06;100636.94;5064936;28;20078;-69
2022/01/17 10:39:35;;;;;;;4.57;1.35;;;;;;;10.24;28.91;100641.44;5064902;28;20032;-70
2022/01/17 10:42:22;;;;;;;7.45;1.10;;;;;;;9.78;29.20;100653.66;5064942;28;20056;-70
2022/01/17 10:44:47;;;;;;;10.82;2.22;;;;;;;9.42;30.21;100661.41;5065095;28;20024;-69
2022/01/17 10:47:26;;;;;;;3.90;1.27;;;;;;;9.31;30.47;100658.00;5064567;28;20025;-70
2022/01/17 10:49:57;;;;;;;3.00;1.00;;;;;;;9.05;29.85;100659.69;5064610;28;20017;-69
2022/01/17 10:52:50;;;;;;;6.38;1.30;;;;;;;8.53;30.47;100662.94;5064899;28;20017;-70
2022/01/17 10:55:26;;;;;;;7.22;1.77;;;;;;;8.13;31.33;100679.97;5061402;28;20033;-69
2022/01/17 10:57:58;;;;;;;6.75;1.35;;;;;;;7.84;31.12;100667.72;5064630;28;20028;-70
2022/01/17 11:00:33;;;;;;;7.45;1.50;;;;;;;7.26;30.78;100674.13;5046791;28;20056;-70
2022/01/17 11:03:03;;;;;;;5.80;1.50;;;;;;;6.75;31.59;100677.03;5063315;28;20096;-71
2022/01/17 11:05:31;;;;;;;6.93;1.67;;;;;;;6.56;32.25;100675.13;5064726;28;20512;-71
2022/01/17 11:08:00;;;;;;;5.63;1.20;;;;;;;6.30;32.55;100664.44;5046445;28;20075;-71
2022/01/17 11:10:27;;;;;;;6.93;1.77;;;;;;;6.42;32.91;100685.22;5063930;28;20032;-69
2022/01/17 11:12:55;;;;;;;7.53;1.35;;;;;;;6.30;32.78;100693.69;5064345;28;20061;-70
2022/01/17 11:15:22;;;;;;;8.70;1.65;;;;;;;6.46;33.10;100704.19;5046475;28;20025;-71
2022/01/17 11:17:54;;;;;;;4.80;1.50;;;;;;;6.59;33.13;100715.56;5064088;28;20025;-71
2022/01/17 11:20:21;;;;;;;;;;;;;;;6.79;33.11;100710.63;5064903;28;20028;-70
2022/01/17 11:22:49;;;;;;;9.63;1.70;;;;;;;6.89;32.41;100697.84;5046383;28;19962;-71
2022/01/17 11:25:19;;;;;;;4.15;0.98;;;;;;;7.51;32.20;100726.00;5064340;28;20013;-70
2022/01/17 11:27:45;;;;;;;14.15;1.65;;;;;;;8.05;31.33;100723.03;5063970;28;20025;-71
2022/01/17 11:30:11;;;;;;;10.57;1.50;;;;;;;8.67;30.65;100728.56;5064107;28;20035;-70
2022/01/17 11:32:37;;;;;;;10.77;1.63;;;;;;;9.09;29.67;100727.88;5063997;28;20072;-68
2022/01/17 11:35:04;;;;;;;9.13;1.40;;;;;;;9.48;29.35;100753.00;5006685;28;1139562;-68
2022/01/17 11:37:36;;;;;;;10.05;1.48;;;;;;;9.81;28.95;100763.44;5065042;28;20041;-69
2022/01/17 11:40:03;;;;;;;4.63;1.20;;;;;;;9.66;28.58;100772.91;5065212;28;20044;-69
2022/01/17 11:42:48;;;;;;;7.95;2.03;;;;;;;8.67;29.83;100790.69;5064607;28;20025;-69
2022/01/17 11:45:22;;;;;;;6.35;1.02;;;;;;;7.61;30.91;100766.59;5064960;28;20286;-67
2022/01/17 11:48:01;;;;;;;1.73;1.00;;;;;;;6.78;31.80;100776.00;5064585;28;20064;-68
2022/01/17 11:50:30;;;;;;;5.00;1.20;;;;;;;6.19;32.96;100783.78;5064718;28;20031;-65
2022/01/17 11:52:57;;;;;;;9.35;1.33;;;;;;;5.75;33.48;100792.44;5064705;28;20024;-65
2022/01/17 11:55:44;;;;;;;11.05;1.90;;;;;;;5.37;33.97;100783.16;5064170;28;20029;-66
2022/01/17 11:58:28;;;;;;;6.22;1.38;;;;;;;5.12;34.66;100787.84;5046746;28;20133;-65
2022/01/17 12:00:56;;;;;;;5.20;1.20;;;;;;;5.06;35.02;100805.75;5064551;28;20063;-65